createdAt,value
2017-10-22T00:01:20.522Z,13.40
2017-10-22T00:06:22.001Z,13.40
2017-10-22T00:11:23.404Z,13.40
2017-10-22T00:16:24.804Z,13.30
2017-10-22T00:21:26.939Z,13.30
2017-10-22T00:26:28.324Z,13.30
2017-10-22T00:31:29.697Z,13.30
2017-10-22T00:36:31.119Z,13.30
2017-10-22T00:41:32.535Z,13.20
2017-10-22T00:46:33.951Z,13.20
2017-10-22T00:51:35.387Z,13.20
2017-10-22T00:56:37.531Z,13.10
2017-10-22T01:01:39.655Z,13.10
2017-10-22T01:06:41.098Z,13.00
2017-10-22T01:11:42.511Z,13.10
2017-10-22T01:16:43.911Z,13.00
2017-10-22T01:21:45.333Z,13.00
2017-10-22T01:26:46.836Z,13.00
2017-10-22T01:31:49.078Z,13.00
2017-10-22T01:36:50.566Z,13.00
2017-10-22T01:41:52.018Z,12.90
2017-10-22T01:46:53.474Z,12.90
2017-10-22T01:51:55.644Z,12.90
2017-10-22T01:56:57.105Z,12.90
2017-10-22T02:01:58.525Z,12.90
2017-10-22T02:07:00.184Z,12.90
2017-10-22T02:12:01.678Z,12.90
2017-10-22T02:17:03.145Z,12.90
2017-10-22T02:22:04.610Z,12.90
2017-10-22T02:27:06.087Z,12.90
2017-10-22T02:32:07.489Z,13.00
2017-10-22T02:37:08.908Z,13.00
2017-10-22T02:42:10.339Z,12.90
2017-10-22T02:47:11.782Z,12.90
2017-10-22T02:52:13.174Z,13.00
2017-10-22T02:57:14.577Z,13.00
2017-10-22T03:02:16.236Z,12.90
2017-10-22T03:07:17.727Z,13.00
2017-10-22T03:12:19.133Z,13.00
2017-10-22T03:17:20.548Z,13.00
2017-10-22T03:22:21.972Z,13.00
2017-10-22T03:27:24.099Z,13.00
2017-10-22T03:32:25.461Z,13.00
2017-10-22T03:37:26.849Z,13.00
2017-10-22T03:42:28.225Z,12.80
2017-10-22T03:47:29.951Z,12.70
2017-10-22T03:52:31.334Z,12.60
2017-10-22T03:57:32.689Z,12.30
2017-10-22T04:02:34.051Z,12.20
2017-10-22T04:07:35.436Z,12.00
2017-10-22T04:12:36.820Z,11.80
2017-10-22T04:17:39.614Z,11.80
2017-10-22T04:22:41.082Z,11.80
2017-10-22T04:27:42.470Z,11.70
2017-10-22T04:32:43.850Z,11.60
2017-10-22T04:37:45.248Z,11.60
2017-10-22T04:42:48.594Z,11.60
2017-10-22T04:47:49.979Z,11.60
2017-10-22T04:52:51.340Z,11.60
2017-10-22T04:57:52.732Z,11.50
2017-10-22T05:02:54.129Z,11.60
2017-10-22T05:07:56.234Z,11.50
2017-10-22T05:12:57.603Z,11.50
2017-10-22T05:17:58.967Z,11.50
2017-10-22T05:23:00.322Z,11.50
2017-10-22T05:28:01.715Z,11.50
2017-10-22T05:33:03.087Z,11.50
2017-10-22T05:38:04.460Z,11.60
2017-10-22T05:43:06.154Z,11.50
2017-10-22T05:48:07.533Z,11.50
2017-10-22T05:53:08.900Z,11.50
2017-10-22T05:58:10.310Z,11.50
2017-10-22T06:03:11.676Z,11.50
2017-10-22T06:08:13.047Z,11.40
2017-10-22T06:13:14.488Z,11.40
2017-10-22T06:18:15.875Z,11.40
2017-10-22T06:23:17.243Z,11.50
2017-10-22T06:28:18.829Z,11.40
2017-10-22T06:33:20.204Z,11.40
2017-10-22T06:38:21.611Z,11.40
2017-10-22T06:43:23.018Z,11.40
2017-10-22T06:48:24.466Z,11.50
2017-10-22T06:53:25.849Z,11.50
2017-10-22T06:58:27.271Z,11.50
2017-10-22T07:03:28.687Z,11.50
2017-10-22T07:08:30.166Z,11.50
2017-10-22T07:13:31.631Z,11.60
2017-10-22T07:18:33.571Z,11.60
2017-10-22T07:23:34.984Z,11.60
2017-10-22T07:28:36.376Z,11.60
2017-10-22T07:33:38.519Z,11.60
2017-10-22T07:38:39.935Z,11.60
2017-10-22T07:43:41.379Z,11.60
2017-10-22T07:48:42.843Z,11.70
2017-10-22T07:53:44.273Z,11.70
2017-10-22T07:58:46.401Z,11.80
2017-10-22T08:03:48.523Z,11.80
2017-10-22T08:08:49.930Z,11.80
2017-10-22T08:13:51.315Z,11.80
2017-10-22T08:18:52.726Z,11.90
2017-10-22T08:23:54.113Z,11.90
2017-10-22T08:28:55.517Z,12.00
2017-10-22T08:33:56.913Z,12.00
2017-10-22T08:38:58.287Z,11.90
2017-10-22T08:43:59.690Z,12.00
2017-10-22T08:49:01.297Z,11.90
2017-10-22T08:54:02.775Z,11.90
2017-10-22T08:59:04.244Z,11.90
2017-10-22T09:04:05.684Z,12.00
2017-10-22T09:09:07.894Z,12.00
2017-10-22T09:14:09.401Z,12.00
2017-10-22T09:19:10.848Z,12.00
2017-10-22T09:24:12.292Z,12.10
2017-10-22T09:29:13.732Z,12.10
2017-10-22T09:34:15.180Z,12.20
2017-10-22T09:39:16.615Z,12.10
2017-10-22T09:44:18.025Z,12.10
2017-10-22T09:49:19.470Z,12.10
2017-10-22T09:54:20.892Z,12.10
2017-10-22T09:59:22.357Z,12.20
2017-10-22T10:04:23.800Z,12.20
2017-10-22T10:09:25.226Z,12.20
2017-10-22T10:14:26.655Z,12.30
2017-10-22T10:19:28.230Z,12.30
2017-10-22T10:24:29.751Z,12.30
2017-10-22T10:29:31.229Z,12.30
2017-10-22T10:34:33.488Z,12.50
2017-10-22T10:39:34.992Z,12.50
2017-10-22T10:44:36.413Z,12.50
2017-10-22T10:49:37.867Z,12.50
2017-10-22T10:54:39.332Z,12.50
2017-10-22T10:59:40.828Z,12.40
2017-10-22T11:04:42.388Z,12.50
2017-10-22T11:09:44.958Z,12.50
2017-10-22T11:14:46.380Z,12.50
2017-10-22T11:19:47.744Z,12.60
2017-10-22T11:24:49.159Z,12.70
2017-10-22T11:29:50.576Z,12.70
2017-10-22T11:34:51.947Z,12.80
2017-10-22T11:39:53.348Z,13.00
2017-10-22T11:44:54.764Z,13.10
2017-10-22T11:49:56.192Z,13.10
2017-10-22T11:54:58.411Z,13.10
2017-10-22T11:59:59.800Z,13.10
2017-10-22T12:05:01.191Z,13.20
2017-10-22T12:10:03.402Z,13.40
2017-10-22T12:15:04.867Z,13.40
2017-10-22T12:20:06.293Z,13.30
2017-10-22T12:25:07.764Z,13.30
2017-10-22T12:30:09.216Z,13.30
2017-10-22T12:35:10.650Z,13.20
2017-10-22T12:40:12.088Z,13.20
2017-10-22T12:45:13.516Z,13.30
2017-10-22T12:50:14.959Z,13.30
2017-10-22T12:55:16.409Z,13.20
2017-10-22T13:00:17.833Z,13.30
2017-10-22T13:05:19.269Z,13.40
2017-10-22T13:10:20.726Z,13.40
2017-10-22T13:15:22.117Z,13.30
2017-10-22T13:20:23.514Z,13.30
2017-10-22T13:25:25.759Z,13.30
2017-10-22T13:30:27.344Z,13.30
2017-10-22T13:35:28.775Z,13.40
2017-10-22T13:40:30.267Z,13.50
2017-10-22T13:45:31.747Z,13.40
2017-10-22T13:50:33.193Z,13.50
2017-10-22T13:55:34.569Z,13.40
2017-10-22T14:00:36.000Z,13.40
2017-10-22T14:05:37.469Z,13.50
2017-10-22T14:10:38.892Z,13.60
2017-10-22T14:15:40.322Z,13.50
2017-10-22T14:20:41.745Z,13.50
2017-10-22T14:25:43.223Z,13.50
2017-10-22T14:30:44.745Z,13.40
2017-10-22T14:35:46.189Z,13.30
2017-10-22T14:40:47.629Z,13.10
2017-10-22T14:45:49.035Z,13.20
2017-10-22T14:50:50.463Z,13.10
2017-10-22T14:55:51.875Z,13.10
2017-10-22T15:00:53.331Z,13.10
2017-10-22T15:05:54.711Z,13.10
2017-10-22T15:10:56.157Z,13.00
2017-10-22T15:15:57.610Z,13.00
2017-10-22T15:20:59.747Z,12.90
2017-10-22T15:26:01.195Z,12.80
2017-10-22T15:31:02.625Z,12.80
2017-10-22T15:36:04.088Z,12.80
2017-10-22T15:41:06.247Z,12.70
2017-10-22T15:46:07.645Z,12.70
2017-10-22T15:51:09.778Z,12.70
2017-10-22T15:56:11.231Z,12.70
2017-10-22T16:01:12.708Z,12.60
2017-10-22T16:06:14.113Z,12.60
2017-10-22T16:11:15.571Z,12.60
2017-10-22T16:16:17.084Z,12.60
2017-10-22T16:21:18.481Z,12.60
2017-10-22T16:26:19.886Z,12.60
2017-10-22T16:31:21.287Z,12.50
2017-10-22T16:36:23.403Z,12.50
2017-10-22T16:41:24.916Z,12.40
2017-10-22T16:46:27.076Z,12.30
2017-10-22T16:51:28.495Z,12.30
2017-10-22T16:56:29.879Z,12.30
2017-10-22T17:01:31.370Z,12.30
2017-10-22T17:06:32.906Z,12.30
2017-10-22T17:11:34.829Z,12.30
2017-10-22T17:16:36.280Z,12.20
2017-10-22T17:21:39.153Z,12.20
2017-10-22T17:26:40.745Z,12.20
2017-10-22T17:31:42.219Z,12.20
2017-10-22T17:36:44.467Z,12.20
2017-10-22T17:41:46.962Z,12.10
2017-10-22T17:46:48.488Z,12.20
2017-10-22T17:51:50.089Z,12.10
2017-10-22T17:56:51.511Z,12.10
2017-10-22T18:01:53.185Z,12.10
2017-10-22T18:06:54.688Z,12.00
2017-10-22T18:11:57.187Z,12.10
2017-10-22T18:16:58.669Z,12.10
2017-10-22T18:22:00.223Z,12.10
2017-10-22T18:27:01.612Z,12.10
2017-10-22T18:32:03.044Z,12.00
2017-10-22T18:37:04.538Z,12.00
2017-10-22T18:42:05.975Z,12.10
2017-10-22T18:47:07.460Z,12.10
2017-10-22T18:52:08.919Z,12.10
2017-10-22T18:57:10.957Z,12.00
2017-10-22T19:02:12.429Z,12.00
2017-10-22T19:07:14.675Z,12.00
2017-10-22T19:12:16.146Z,12.00
2017-10-22T19:17:17.627Z,12.00
2017-10-22T19:22:19.103Z,12.00
2017-10-22T19:27:20.504Z,12.00
2017-10-22T19:32:22.244Z,12.00
2017-10-22T19:37:23.630Z,12.00
2017-10-22T19:42:25.070Z,12.00
2017-10-22T19:47:26.569Z,12.00
2017-10-22T19:52:28.894Z,11.90
2017-10-22T19:57:30.305Z,11.90
2017-10-22T20:02:31.703Z,11.90
2017-10-22T20:07:33.821Z,11.90
2017-10-22T20:12:35.232Z,11.80
2017-10-22T20:17:37.420Z,11.80
2017-10-22T20:22:40.334Z,11.80
2017-10-22T20:27:45.380Z,11.90
2017-10-22T20:32:47.529Z,11.70
2017-10-22T20:37:49.735Z,11.70
2017-10-22T20:42:51.242Z,11.70
2017-10-22T20:47:52.777Z,11.70
2017-10-22T20:52:54.243Z,11.70
2017-10-22T20:57:56.465Z,11.70
2017-10-22T21:02:58.030Z,11.70
2017-10-22T21:07:59.586Z,11.60
2017-10-22T21:13:01.077Z,11.60
2017-10-22T21:18:03.475Z,11.60
2017-10-22T21:23:04.916Z,11.60
2017-10-22T21:28:06.345Z,11.60
2017-10-22T21:33:07.782Z,11.70
2017-10-22T21:38:09.156Z,11.60
2017-10-22T21:43:11.530Z,11.70
2017-10-22T21:48:12.964Z,11.60
2017-10-22T21:53:14.428Z,11.70
2017-10-22T21:58:16.559Z,11.60
2017-10-22T22:03:18.482Z,11.60
2017-10-22T22:08:20.068Z,11.60
2017-10-22T22:13:21.483Z,11.60
2017-10-22T22:18:22.863Z,11.60
2017-10-22T22:23:25.027Z,11.50
2017-10-22T22:28:26.447Z,11.60
2017-10-22T22:33:27.844Z,11.60
2017-10-22T22:38:29.251Z,11.50
2017-10-22T22:43:30.694Z,11.50
2017-10-22T22:48:32.170Z,11.60
2017-10-22T22:53:33.576Z,11.50
2017-10-22T22:58:35.000Z,11.60
2017-10-22T23:03:36.389Z,11.60
2017-10-22T23:08:37.765Z,11.50
2017-10-22T23:13:40.058Z,11.40
2017-10-22T23:18:41.486Z,11.40
2017-10-22T23:23:42.944Z,11.40
2017-10-22T23:33:51.585Z,11.40
2017-10-22T23:38:54.919Z,11.30
2017-10-22T23:43:58.183Z,11.40
2017-10-22T23:49:02.288Z,11.40
2017-10-22T23:54:06.332Z,11.40
2017-10-22T23:59:10.363Z,11.50
